Time;durP1;ratioP1;P1;durP2;ratioP2;P2;SDS_P1;SDS_P2;PMS_P1;PMS_P2;Temp;Humidity;BMP_temperature;BMP_pressure;BME280_temperature;BME280_humidity;BME280_pressure;Samples;Min_cycle;Max_cycle;Signal;HPM_P1;HPM_P2
2020/12/03 00:00:35;;;;;;;27.83;17.57;;;6.60;99.90;;;;;;5093967;28;20222;-76
2020/12/03 00:03:08;;;;;;;31.10;17.07;;;6.50;99.90;;;;;;5083946;28;20205;-75
2020/12/03 00:05:34;;;;;;;32.83;17.40;;;6.60;99.90;;;;;;5092940;28;20198;-76
2020/12/03 00:08:01;;;;;;;30.10;15.80;;;6.60;99.90;;;;;;5083011;28;20214;-76
2020/12/03 00:10:27;;;;;;;37.07;17.60;;;6.60;99.90;;;;;;5080706;28;20313;-77
2020/12/03 00:13:10;;;;;;;30.07;17.03;;;6.80;99.90;;;;;;5094633;28;20567;-76
2020/12/03 00:15:38;;;;;;;25.63;16.23;;;6.70;99.90;;;;;;5094437;28;20198;-76
2020/12/03 00:18:05;;;;;;;27.07;14.97;;;6.70;99.90;;;;;;5094441;28;20202;-75
2020/12/03 00:20:32;;;;;;;31.37;16.10;;;6.70;99.90;;;;;;5094352;28;20255;-75
2020/12/03 00:23:01;;;;;;;24.03;13.40;;;6.70;99.90;;;;;;5094183;28;20197;-76
2020/12/03 00:25:28;;;;;;;24.70;13.77;;;6.70;99.90;;;;;;5094309;28;20667;-76
2020/12/03 00:27:58;;;;;;;26.87;13.63;;;6.70;99.90;;;;;;5094125;28;20732;-75
2020/12/03 00:30:26;;;;;;;24.43;13.17;;;6.70;99.90;;;;;;5083710;28;20210;-75
2020/12/03 00:32:54;;;;;;;24.37;12.00;;;6.70;99.90;;;;;;5087921;28;20217;-76
2020/12/03 00:35:22;;;;;;;24.83;12.53;;;6.70;99.90;;;;;;5083836;28;20206;-76
2020/12/03 00:37:49;;;;;;;24.60;11.97;;;6.70;99.90;;;;;;5095448;28;20198;-77
2020/12/03 00:40:16;;;;;;;25.67;12.70;;;6.70;99.90;;;;;;5095284;28;20208;-77
2020/12/03 00:42:42;;;;;;;25.93;12.00;;;6.70;99.90;;;;;;5094274;28;20289;-77
2020/12/03 00:45:10;;;;;;;24.13;11.90;;;6.80;99.90;;;;;;5079995;28;20199;-75
2020/12/03 00:47:38;;;;;;;23.20;11.10;;;6.80;99.90;;;;;;5094163;28;20285;-75
2020/12/03 00:50:06;;;;;;;29.87;12.30;;;6.70;99.90;;;;;;5093477;28;20210;-75
2020/12/03 00:52:33;;;;;;;20.57;10.67;;;6.80;99.90;;;;;;5083070;28;20205;-75
2020/12/03 00:54:59;;;;;;;22.93;10.50;;;6.70;99.90;;;;;;5090893;28;20206;-75
2020/12/03 00:57:25;;;;;;;20.70;11.43;;;6.80;99.90;;;;;;5085040;28;20202;-76
2020/12/03 00:59:52;;;;;;;20.30;10.87;;;6.80;99.90;;;;;;5085114;28;20200;-75
2020/12/03 01:02:18;;;;;;;21.83;10.97;;;6.70;99.90;;;;;;5076174;28;20226;-75
2020/12/03 01:04:44;;;;;;;25.70;12.03;;;6.80;99.90;;;;;;5083067;28;20198;-77
2020/12/03 01:07:13;;;;;;;24.07;11.10;;;6.80;99.90;;;;;;5093838;28;20223;-75
2020/12/03 01:09:43;;;;;;;27.03;11.20;;;6.80;99.90;;;;;;5085736;28;20207;-75
2020/12/03 01:12:10;;;;;;;25.07;11.60;;;6.80;99.90;;;;;;5088198;28;20206;-75
2020/12/03 01:14:37;;;;;;;32.00;12.73;;;6.80;99.90;;;;;;5087035;28;20627;-76
2020/12/03 01:17:05;;;;;;;22.27;10.77;;;6.80;99.90;;;;;;5086376;28;20194;-75
2020/12/03 01:19:31;;;;;;;28.77;12.70;;;6.80;99.90;;;;;;5074798;28;20202;-75
2020/12/03 01:21:57;;;;;;;23.30;12.30;;;6.90;99.90;;;;;;5085120;28;20214;-77
2020/12/03 01:24:27;;;;;;;25.33;11.77;;;6.80;99.90;;;;;;5094168;28;20646;-75
2020/12/03 01:26:54;;;;;;;28.97;13.23;;;6.70;99.90;;;;;;5084199;28;20248;-75
2020/12/03 01:29:22;;;;;;;31.03;13.27;;;6.70;99.90;;;;;;5087394;28;20198;-75
2020/12/03 01:31:48;;;;;;;22.70;13.60;;;6.70;99.90;;;;;;5088017;28;20206;-75
2020/12/03 01:34:17;;;;;;;28.10;13.17;;;6.80;99.90;;;;;;5092977;28;20204;-75
2020/12/03 01:36:48;;;;;;;24.43;13.27;;;6.80;99.90;;;;;;5091454;28;20243;-75
2020/12/03 01:39:14;;;;;;;30.40;14.87;;;6.80;99.90;;;;;;5093225;28;20194;-75
2020/12/03 01:41:41;;;;;;;27.57;14.60;;;6.80;99.90;;;;;;5092615;28;20633;-75
2020/12/03 01:44:08;;;;;;;31.73;15.33;;;6.80;99.90;;;;;;5093129;28;20199;-75
2020/12/03 01:46:35;;;;;;;31.40;15.37;;;6.70;99.90;;;;;;5075008;28;20290;-74
2020/12/03 01:49:05;;;;;;;30.13;15.70;;;6.70;99.90;;;;;;5082581;28;20198;-76
2020/12/03 01:51:35;;;;;;;33.80;16.90;;;6.70;99.90;;;;;;5093015;28;20202;-75
2020/12/03 01:54:06;;;;;;;30.77;15.17;;;6.70;99.90;;;;;;5093317;28;20194;-76
2020/12/03 01:56:47;;;;;;;38.83;15.87;;;6.70;99.90;;;;;;5092919;28;20194;-75
2020/12/03 01:59:14;;;;;;;31.13;17.73;;;6.70;99.90;;;;;;5092467;28;20206;-75
2020/12/03 02:01:41;;;;;;;34.37;16.07;;;6.70;99.90;;;;;;5092579;28;20232;-74
2020/12/03 02:04:07;;;;;;;31.27;16.93;;;6.60;99.90;;;;;;5078448;28;20649;-74
2020/12/03 02:06:38;;;;;;;34.73;16.93;;;6.70;99.90;;;;;;5082279;28;20213;-76
2020/12/03 02:09:08;;;;;;;29.43;16.50;;;6.70;99.90;;;;;;5090150;28;20190;-74
2020/12/03 02:11:35;;;;;;;34.57;16.77;;;6.70;99.90;;;;;;5089404;28;20202;-76
2020/12/03 02:14:06;;;;;;;31.03;17.33;;;6.70;99.90;;;;;;5092163;28;20212;-75
2020/12/03 02:16:35;;;;;;;33.57;15.93;;;6.70;99.90;;;;;;5087035;28;20249;-75
2020/12/03 02:19:04;;;;;;;34.17;16.57;;;6.70;99.90;;;;;;5087951;28;20198;-78
2020/12/03 02:21:31;;;;;;;35.33;17.57;;;6.80;99.90;;;;;;5097248;28;20225;-76
2020/12/03 02:23:57;;;;;;;30.87;16.13;;;6.70;99.90;;;;;;5096594;28;20290;-75
2020/12/03 02:26:24;;;;;;;30.10;16.70;;;6.70;99.90;;;;;;5096639;28;20289;-75
2020/12/03 02:28:52;;;;;;;33.70;16.47;;;6.60;99.90;;;;;;5095975;28;20198;-75
2020/12/03 02:31:18;;;;;;;28.33;16.20;;;6.70;99.90;;;;;;5096682;28;20204;-75
2020/12/03 02:33:44;;;;;;;31.60;15.67;;;6.60;99.90;;;;;;5096708;28;20578;-75
2020/12/03 02:36:14;;;;;;;28.70;16.43;;;6.60;99.90;;;;;;5096511;28;20199;-75
2020/12/03 02:38:41;;;;;;;26.80;17.90;;;6.70;99.90;;;;;;5084959;28;20203;-75
2020/12/03 02:41:09;;;;;;;32.97;16.97;;;6.60;99.90;;;;;;5090646;28;20227;-75
2020/12/03 02:43:35;;;;;;;36.93;16.37;;;6.60;99.90;;;;;;5076554;28;20207;-76
2020/12/03 02:46:02;;;;;;;32.70;17.17;;;6.60;99.90;;;;;;5076393;28;20561;-76
2020/12/03 02:48:28;;;;;;;34.73;17.27;;;6.60;99.90;;;;;;5076345;28;20206;-75
2020/12/03 02:50:54;;;;;;;32.83;16.80;;;6.60;99.90;;;;;;5090469;28;20210;-77
2020/12/03 02:53:23;;;;;;;36.50;16.73;;;6.60;99.90;;;;;;5082399;28;20205;-75
2020/12/03 02:55:50;;;;;;;29.20;16.37;;;6.60;99.90;;;;;;5095966;28;20202;-75
2020/12/03 02:58:16;;;;;;;27.40;15.07;;;6.60;99.90;;;;;;5077332;28;20197;-75
2020/12/03 03:00:43;;;;;;;39.50;17.53;;;6.50;99.90;;;;;;5087208;28;20196;-75
2020/12/03 03:03:09;;;;;;;27.37;14.97;;;6.50;99.90;;;;;;5084070;28;21600;-77
2020/12/03 03:05:35;;;;;;;29.53;15.97;;;6.40;99.90;;;;;;5088470;28;20202;-76
2020/12/03 03:08:04;;;;;;;27.07;16.40;;;6.50;99.90;;;;;;5090983;28;20201;-76
2020/12/03 03:10:30;;;;;;;23.13;15.63;;;6.50;99.90;;;;;;5095991;28;20229;-77
2020/12/03 03:12:59;;;;;;;24.30;15.17;;;6.50;99.90;;;;;;5096226;28;20202;-75
2020/12/03 03:15:25;;;;;;;27.13;16.67;;;6.50;99.90;;;;;;5090079;28;20222;-75
2020/12/03 03:17:51;;;;;;;26.73;16.63;;;6.50;99.90;;;;;;5087824;28;20208;-76
2020/12/03 03:20:18;;;;;;;25.90;15.50;;;6.50;99.90;;;;;;5078710;28;20293;-76
2020/12/03 03:22:44;;;;;;;20.90;15.53;;;6.50;99.90;;;;;;5084571;28;20218;-77
2020/12/03 03:25:11;;;;;;;23.10;15.93;;;6.50;99.90;;;;;;5080190;28;20211;-77
2020/12/03 03:27:37;;;;;;;26.07;14.97;;;6.50;99.90;;;;;;5075845;28;20203;-76
2020/12/03 03:30:06;;;;;;;22.13;14.23;;;6.60;99.90;;;;;;5087814;28;20207;-76
2020/12/03 03:32:32;;;;;;;24.93;14.27;;;6.50;99.90;;;;;;5089865;28;20209;-76
2020/12/03 03:34:59;;;;;;;29.50;16.50;;;6.50;99.90;;;;;;5087443;28;20194;-77
2020/12/03 03:37:28;;;;;;;31.20;15.53;;;6.50;99.90;;;;;;5095435;28;20194;-77
2020/12/03 03:39:54;;;;;;;24.80;15.67;;;6.60;99.90;;;;;;5085022;28;20209;-77
2020/12/03 03:42:21;;;;;;;30.73;16.43;;;6.60;99.90;;;;;;5077570;28;20252;-77
2020/12/03 03:44:47;;;;;;;23.40;14.30;;;6.60;99.90;;;;;;5095700;28;20200;-76
2020/12/03 03:47:14;;;;;;;23.90;16.13;;;6.60;99.90;;;;;;5081825;28;20199;-75
2020/12/03 03:49:41;;;;;;;25.27;15.97;;;6.60;99.90;;;;;;5097017;28;20197;-77
2020/12/03 03:52:07;;;;;;;23.43;15.97;;;6.60;99.90;;;;;;5095777;28;20516;-76
2020/12/03 03:54:36;;;;;;;24.87;16.80;;;6.60;99.90;;;;;;5095343;28;20196;-76
2020/12/03 03:57:03;;;;;;;28.40;16.83;;;6.60;99.90;;;;;;5095488;28;20220;-76
2020/12/03 03:59:30;;;;;;;27.03;15.53;;;6.60;99.90;;;;;;5091594;28;20257;-77
2020/12/03 04:01:56;;;;;;;31.10;15.77;;;6.60;99.90;;;;;;5075470;28;20234;-77
2020/12/03 04:04:23;;;;;;;29.00;17.33;;;6.80;99.90;;;;;;5090906;28;20328;-77
2020/12/03 04:06:50;;;;;;;26.10;17.33;;;6.50;99.90;;;;;;5086875;28;20558;-77
2020/12/03 04:09:16;;;;;;;25.50;17.50;;;6.50;99.90;;;;;;5074487;28;20685;-80
2020/12/03 04:11:43;;;;;;;28.60;18.30;;;6.50;99.90;;;;;;5095371;28;20194;-78
2020/12/03 04:14:13;;;;;;;34.70;18.57;;;6.40;99.90;;;;;;5082535;28;20203;-77
2020/12/03 04:16:39;;;;;;;27.70;17.50;;;6.50;99.90;;;;;;5088446;28;20668;-78
2020/12/03 04:19:05;;;;;;;30.13;17.13;;;6.50;99.90;;;;;;5077994;28;20540;-78
2020/12/03 04:21:37;;;;;;;31.20;18.07;;;6.40;99.90;;;;;;5087444;28;20226;-78
2020/12/03 04:24:03;;;;;;;28.63;16.53;;;6.30;99.90;;;;;;5088609;28;20207;-77
2020/12/03 04:26:32;;;;;;;22.47;15.93;;;6.40;99.90;;;;;;5074522;28;20228;-77
2020/12/03 04:28:58;;;;;;;31.37;17.87;;;6.20;99.90;;;;;;5092908;28;20190;-78
2020/12/03 04:31:28;;;;;;;29.33;17.10;;;6.20;99.90;;;;;;5083931;28;20205;-77
2020/12/03 04:33:55;;;;;;;29.27;17.40;;;6.30;99.90;;;;;;5088726;28;20206;-79
2020/12/03 04:36:25;;;;;;;27.63;17.00;;;6.20;99.90;;;;;;5086676;28;20621;-78
2020/12/03 04:38:55;;;;;;;28.93;17.50;;;6.30;99.90;;;;;;5093014;28;20205;-78
2020/12/03 04:41:25;;;;;;;29.60;16.47;;;6.30;99.90;;;;;;5082978;28;20218;-78
2020/12/03 04:43:58;;;;;;;32.57;16.67;;;6.30;99.90;;;;;;5080392;28;20203;-78
2020/12/03 04:46:30;;;;;;;31.27;15.70;;;6.20;99.90;;;;;;5085896;28;20569;-77
2020/12/03 04:49:23;;;;;;;27.70;15.80;;;6.30;99.90;;;;;;5088269;28;20206;-78
2020/12/03 04:52:23;;;;;;;22.83;14.93;;;6.30;99.90;;;;;;5084662;28;20206;-77
2020/12/03 04:55:00;;;;;;;26.20;15.57;;;6.30;99.90;;;;;;5073496;28;20286;-78
2020/12/03 04:57:34;;;;;;;27.83;15.33;;;6.30;99.90;;;;;;5088244;28;20251;-78
2020/12/03 05:00:11;;;;;;;27.37;15.37;;;6.30;99.90;;;;;;5093608;28;20199;-78
2020/12/03 05:03:15;;;;;;;23.30;14.53;;;6.30;99.90;;;;;;5092042;28;20228;-78
2020/12/03 05:05:50;;;;;;;24.53;15.30;;;6.40;99.90;;;;;;5069221;28;20205;-77
2020/12/03 05:08:25;;;;;;;27.13;14.40;;;6.30;99.90;;;;;;5093493;28;20558;-77
2020/12/03 05:10:52;;;;;;;26.10;15.23;;;6.20;99.90;;;;;;5080545;28;20285;-77
2020/12/03 05:13:23;;;;;;;27.77;16.07;;;6.20;99.90;;;;;;5086865;28;20198;-77
2020/12/03 05:15:52;;;;;;;32.57;16.03;;;6.20;99.90;;;;;;5085650;28;20205;-77
2020/12/03 05:18:33;;;;;;;28.57;16.47;;;6.20;99.90;;;;;;5074400;28;20654;-78
2020/12/03 05:21:02;;;;;;;25.80;16.23;;;6.20;99.90;;;;;;5075737;28;20217;-76
2020/12/03 05:23:31;;;;;;;33.40;16.37;;;6.10;99.90;;;;;;5088910;28;20198;-75
2020/12/03 05:25:59;;;;;;;28.13;17.13;;;6.10;99.90;;;;;;5093569;28;20194;-76
2020/12/03 05:28:40;;;;;;;32.37;18.30;;;6.20;99.90;;;;;;5079347;28;20209;-76
2020/12/03 05:31:15;;;;;;;32.10;19.83;;;6.20;99.90;;;;;;5080996;28;20198;-75
2020/12/03 05:33:42;;;;;;;32.53;19.90;;;6.10;99.90;;;;;;5092681;28;20217;-77
2020/12/03 05:36:28;;;;;;;35.47;20.63;;;6.10;99.90;;;;;;5092987;28;20677;-76
2020/12/03 05:38:55;;;;;;;36.30;20.57;;;6.20;99.90;;;;;;5093071;28;20206;-76
2020/12/03 05:41:24;;;;;;;37.17;20.07;;;6.10;99.90;;;;;;5092814;28;20242;-76
2020/12/03 05:43:50;;;;;;;32.20;20.27;;;6.10;99.90;;;;;;5092731;28;20671;-76
2020/12/03 05:46:19;;;;;;;39.20;21.07;;;6.10;99.90;;;;;;5092889;28;20205;-76
2020/12/03 05:49:01;;;;;;;35.60;21.00;;;6.00;99.90;;;;;;5093146;28;20213;-75
2020/12/03 05:51:31;;;;;;;36.10;21.43;;;6.10;99.90;;;;;;5080285;28;20564;-75
2020/12/03 05:54:00;;;;;;;34.97;20.50;;;6.10;99.90;;;;;;5092131;28;20198;-75
2020/12/03 05:56:31;;;;;;;34.30;21.17;;;6.10;99.90;;;;;;5079727;28;20297;-75
2020/12/03 05:59:12;;;;;;;37.30;20.43;;;6.10;99.90;;;;;;5092823;28;20726;-76
2020/12/03 06:01:42;;;;;;;32.87;21.53;;;6.10;99.90;;;;;;5092643;28;20312;-77
2020/12/03 06:04:22;;;;;;;33.63;22.03;;;6.10;99.90;;;;;;5093191;28;20293;-76
2020/12/03 06:07:20;;;;;;;38.23;22.50;;;6.10;99.90;;;;;;5085520;28;20203;-78
2020/12/03 06:10:06;;;;;;;39.60;20.70;;;6.00;99.90;;;;;;5076631;28;20300;-78
2020/12/03 06:12:49;;;;;;;39.80;22.93;;;6.10;99.90;;;;;;5093230;28;20202;-76
2020/12/03 06:15:35;;;;;;;40.57;22.10;;;6.00;99.90;;;;;;5092707;28;20224;-77
2020/12/03 06:18:24;;;;;;;37.10;22.63;;;6.00;99.90;;;;;;5092556;28;20289;-78
2020/12/03 06:21:06;;;;;;;40.43;23.57;;;6.10;99.90;;;;;;5094192;28;20235;-78
2020/12/03 06:23:50;;;;;;;33.63;22.47;;;6.10;99.90;;;;;;5096434;28;20204;-77
2020/12/03 06:26:51;;;;;;;34.50;22.60;;;6.10;99.90;;;;;;5092548;28;20198;-76
2020/12/03 06:29:50;;;;;;;33.77;22.80;;;6.10;99.90;;;;;;5092316;28;20201;-77
2020/12/03 06:32:39;;;;;;;36.57;22.00;;;6.10;99.90;;;;;;5092619;28;20729;-77
2020/12/03 06:35:19;;;;;;;31.63;22.20;;;6.10;99.90;;;;;;5092822;28;20199;-77
2020/12/03 06:37:53;;;;;;;35.97;22.50;;;6.30;99.90;;;;;;5079244;28;20200;-76
2020/12/03 06:40:24;;;;;;;32.77;21.73;;;6.10;99.90;;;;;;5092409;28;20202;-78
2020/12/03 06:42:56;;;;;;;27.67;21.17;;;6.10;99.90;;;;;;5092047;28;20221;-77
2020/12/03 06:45:34;;;;;;;28.77;19.43;;;6.10;99.90;;;;;;5092700;28;20213;-75
2020/12/03 06:48:16;;;;;;;27.60;19.70;;;6.10;99.90;;;;;;5079343;28;20214;-76
2020/12/03 06:51:21;;;;;;;35.30;19.37;;;6.10;99.90;;;;;;5092103;28;20679;-76
2020/12/03 06:54:06;;;;;;;26.50;19.80;;;6.30;99.90;;;;;;5092526;28;20198;-76
2020/12/03 06:57:08;;;;;;;30.20;17.97;;;6.10;99.90;;;;;;5092107;28;20209;-76
2020/12/03 06:59:52;;;;;;;24.53;19.67;;;6.10;99.90;;;;;;5091939;28;20198;-77
2020/12/03 07:02:53;;;;;;;29.03;18.93;;;6.10;99.90;;;;;;5092838;28;20229;-74
2020/12/03 07:05:48;;;;;;;25.40;19.60;;;6.10;99.90;;;;;;5095785;28;20617;-77
2020/12/03 07:08:54;;;;;;;33.20;21.83;;;6.10;99.90;;;;;;5095733;28;20212;-76
2020/12/03 07:11:47;;;;;;;26.13;19.87;;;6.10;99.90;;;;;;5095605;28;20206;-75
2020/12/03 07:14:58;;;;;;;32.30;21.93;;;6.20;99.90;;;;;;5095613;28;20202;-77
2020/12/03 07:18:21;;;;;;;28.57;21.23;;;6.20;99.90;;;;;;5086709;28;20220;-74
2020/12/03 07:21:06;;;;;;;30.57;23.13;;;6.20;99.90;;;;;;5057878;28;20201;-75
2020/12/03 07:23:49;;;;;;;33.03;22.27;;;6.10;99.90;;;;;;5095402;28;20202;-75
2020/12/03 07:26:31;;;;;;;32.37;23.70;;;6.10;99.90;;;;;;5095527;28;20209;-74
2020/12/03 07:28:59;;;;;;;33.23;23.40;;;6.20;99.90;;;;;;5095244;28;20617;-76
2020/12/03 07:31:32;;;;;;;36.23;23.27;;;6.20;99.90;;;;;;5095556;28;20206;-77
2020/12/03 07:34:19;;;;;;;39.10;24.90;;;6.00;99.90;;;;;;5095397;28;20584;-77
2020/12/03 07:36:53;;;;;;;32.27;23.70;;;6.30;99.90;;;;;;5095406;28;20206;-76
2020/12/03 07:39:25;;;;;;;35.17;24.10;;;6.20;99.90;;;;;;5094908;28;20665;-77
2020/12/03 07:41:56;;;;;;;30.87;22.23;;;6.20;99.90;;;;;;5095394;28;20222;-76
2020/12/03 07:44:34;;;;;;;34.70;23.83;;;6.30;99.90;;;;;;5094940;28;20285;-76
2020/12/03 07:47:31;;;;;;;36.00;24.20;;;6.30;99.90;;;;;;5095167;28;20247;-76
2020/12/03 07:49:59;;;;;;;36.27;24.07;;;6.30;99.90;;;;;;5084494;28;20191;-76
2020/12/03 07:52:34;;;;;;;41.93;26.23;;;6.30;99.90;;;;;;5080680;28;20221;-76
2020/12/03 07:55:28;;;;;;;35.20;24.60;;;6.30;99.90;;;;;;5095187;28;20205;-78
2020/12/03 07:57:56;;;;;;;35.53;24.60;;;6.30;99.90;;;;;;5073995;28;20213;-77
2020/12/03 08:00:47;;;;;;;38.20;25.37;;;6.30;99.90;;;;;;5095082;28;20212;-77
2020/12/03 08:03:45;;;;;;;35.07;24.93;;;6.40;99.90;;;;;;5081081;28;20236;-77
2020/12/03 08:06:27;;;;;;;37.87;24.73;;;6.30;99.90;;;;;;5094369;28;20214;-76
2020/12/03 08:09:17;;;;;;;37.67;25.20;;;6.30;99.90;;;;;;5083975;28;20203;-78
2020/12/03 08:11:50;;;;;;;33.80;23.90;;;6.40;99.90;;;;;;5092117;28;20205;-79
2020/12/03 08:14:39;;;;;;;36.13;23.80;;;6.40;99.90;;;;;;5094651;28;20366;-77
2020/12/03 08:17:22;;;;;;;34.53;22.23;;;6.40;99.90;;;;;;5090935;28;20649;-77
2020/12/03 08:20:09;;;;;;;34.47;21.80;;;6.50;99.90;;;;;;5094068;28;20288;-76
2020/12/03 08:22:39;;;;;;;38.67;24.70;;;6.40;99.90;;;;;;5094701;28;20228;-78
2020/12/03 08:25:12;;;;;;;30.60;21.83;;;6.50;99.90;;;;;;5094058;28;20202;-78
2020/12/03 08:27:38;;;;;;;29.87;21.37;;;6.40;99.90;;;;;;5094465;28;20198;-78
2020/12/03 08:30:40;;;;;;;32.70;21.40;;;6.50;99.90;;;;;;5094967;28;20309;-78
2020/12/03 08:33:14;;;;;;;30.03;21.97;;;6.50;99.90;;;;;;5087900;28;20221;-77
2020/12/03 08:35:42;;;;;;;30.27;21.33;;;6.60;99.90;;;;;;5079793;28;20198;-77
2020/12/03 08:38:18;;;;;;;29.70;21.57;;;6.50;99.90;;;;;;5094001;28;20205;-77
2020/12/03 08:40:47;;;;;;;29.90;21.90;;;6.50;99.90;;;;;;5094157;28;20197;-77
2020/12/03 08:43:17;;;;;;;33.63;21.90;;;6.60;99.90;;;;;;5078970;28;20275;-79
2020/12/03 08:45:55;;;;;;;32.40;22.30;;;6.60;99.90;;;;;;5082157;28;20226;-77
2020/12/03 08:48:26;;;;;;;30.73;21.63;;;6.60;99.90;;;;;;5080106;28;20194;-78
2020/12/03 08:50:58;;;;;;;28.53;21.13;;;7.00;99.90;;;;;;5082796;28;20232;-79
2020/12/03 08:53:26;;;;;;;30.73;20.87;;;6.60;99.90;;;;;;5080657;28;20209;-78
2020/12/03 08:55:52;;;;;;;32.10;22.57;;;6.60;99.90;;;;;;5081228;28;20665;-77
2020/12/03 08:58:23;;;;;;;29.13;21.47;;;6.60;99.90;;;;;;5084380;28;20204;-78
2020/12/03 09:00:54;;;;;;;30.40;21.93;;;6.70;99.90;;;;;;5082800;28;20206;-79
2020/12/03 09:03:23;;;;;;;29.73;22.30;;;6.60;99.90;;;;;;5090519;28;20653;-80
2020/12/03 09:05:55;;;;;;;31.97;21.93;;;6.60;99.90;;;;;;5083272;28;20198;-80
2020/12/03 09:08:21;;;;;;;33.33;21.60;;;6.60;99.90;;;;;;5084503;28;20251;-78
2020/12/03 09:10:54;;;;;;;28.80;20.40;;;6.60;99.90;;;;;;5093405;28;20202;-77
2020/12/03 09:13:20;;;;;;;29.10;19.93;;;6.60;99.90;;;;;;5093796;28;20202;-76
2020/12/03 09:15:50;;;;;;;28.00;18.77;;;6.60;99.90;;;;;;5093570;28;20688;-76
2020/12/03 09:18:16;;;;;;;26.73;19.13;;;6.50;99.90;;;;;;5093474;28;20198;-76
2020/12/03 09:20:45;;;;;;;26.23;17.17;;;6.60;99.90;;;;;;5092938;28;20229;-75
2020/12/03 09:23:24;;;;;;;25.90;16.80;;;6.60;99.90;;;;;;5093206;28;20221;-76
2020/12/03 09:25:51;;;;;;;22.90;15.93;;;6.60;99.90;;;;;;5093649;28;20194;-74
2020/12/03 09:28:18;;;;;;;26.87;17.30;;;6.60;99.90;;;;;;5092581;28;20198;-75
2020/12/03 09:30:47;;;;;;;23.97;15.43;;;6.70;99.90;;;;;;5087692;28;20234;-76
2020/12/03 09:33:17;;;;;;;23.23;15.70;;;6.60;99.90;;;;;;5084707;28;20649;-75
2020/12/03 09:35:50;;;;;;;23.40;16.13;;;6.70;99.90;;;;;;5092703;28;20194;-76
2020/12/03 09:38:19;;;;;;;33.00;15.23;;;6.60;99.90;;;;;;5093324;28;20260;-75
2020/12/03 09:40:47;;;;;;;20.80;15.20;;;6.70;99.90;;;;;;5092727;28;20216;-75
2020/12/03 09:43:18;;;;;;;25.93;15.87;;;6.70;99.90;;;;;;5093148;28;20230;-75
2020/12/03 09:45:48;;;;;;;21.30;15.87;;;6.70;99.90;;;;;;5078731;28;20203;-75
2020/12/03 09:48:17;;;;;;;20.80;15.30;;;6.80;99.90;;;;;;5092953;28;20553;-76
2020/12/03 09:50:49;;;;;;;22.87;14.63;;;6.70;99.90;;;;;;5092902;28;20205;-76
2020/12/03 09:53:17;;;;;;;21.13;14.87;;;6.80;99.90;;;;;;5093410;28;20202;-75
2020/12/03 09:55:43;;;;;;;18.73;13.93;;;6.70;99.90;;;;;;5092817;28;20198;-74
2020/12/03 09:58:12;;;;;;;21.57;14.77;;;6.70;99.90;;;;;;5092838;28;20202;-75
2020/12/03 10:00:42;;;;;;;27.17;15.17;;;6.80;99.90;;;;;;5092833;28;20210;-75
2020/12/03 10:03:53;;;;;;;23.13;14.40;;;6.70;99.90;;;;;;5092261;28;20214;-74
2020/12/03 10:06:30;;;;;;;20.87;13.43;;;6.70;99.90;;;;;;5062310;28;20620;-77
2020/12/03 10:09:07;;;;;;;20.83;14.20;;;6.70;99.90;;;;;;5084474;28;20209;-74
2020/12/03 10:12:07;;;;;;;17.53;14.07;;;6.70;99.90;;;;;;5092504;28;20641;-75
2020/12/03 10:15:07;;;;;;;25.10;14.87;;;6.70;99.90;;;;;;5073544;28;20203;-75
2020/12/03 10:17:42;;;;;;;23.00;13.17;;;6.80;99.90;;;;;;5092396;28;20649;-74
2020/12/03 10:20:09;;;;;;;23.97;14.83;;;6.80;99.90;;;;;;5092428;28;20635;-75
2020/12/03 10:22:47;;;;;;;18.53;13.03;;;6.80;99.90;;;;;;5092570;28;20252;-75
2020/12/03 10:25:18;;;;;;;17.60;12.70;;;6.80;99.90;;;;;;5091239;28;20590;-76
2020/12/03 10:27:59;;;;;;;21.87;13.40;;;6.80;99.90;;;;;;5080857;28;20198;-75
2020/12/03 10:30:36;;;;;;;18.03;11.97;;;6.80;99.90;;;;;;5078184;28;20199;-75
2020/12/03 10:33:08;;;;;;;18.20;12.03;;;6.80;99.90;;;;;;5082836;28;20259;-76
2020/12/03 10:35:40;;;;;;;20.03;11.40;;;6.80;99.90;;;;;;5086384;28;20740;-76
2020/12/03 10:38:12;;;;;;;22.20;11.37;;;6.80;99.90;;;;;;5082017;28;20206;-75
2020/12/03 10:40:40;;;;;;;18.27;12.47;;;6.80;99.90;;;;;;5095409;28;20653;-75
2020/12/03 10:43:08;;;;;;;14.90;10.83;;;6.80;99.90;;;;;;5096368;28;20758;-76
2020/12/03 10:45:39;;;;;;;13.00;10.40;;;6.90;99.90;;;;;;5096129;28;20206;-75
2020/12/03 10:48:12;;;;;;;15.83;9.97;;;6.80;99.90;;;;;;5096887;28;20210;-75
2020/12/03 10:50:53;;;;;;;14.13;10.70;;;6.90;99.90;;;;;;5082304;28;20238;-76
2020/12/03 10:53:25;;;;;;;17.13;10.87;;;6.80;99.90;;;;;;5096275;28;20198;-75
2020/12/03 10:55:59;;;;;;;13.63;8.93;;;6.80;99.90;;;;;;5096251;28;20202;-75
2020/12/03 10:58:35;;;;;;;18.47;9.30;;;6.80;99.90;;;;;;5096036;28;20202;-75
2020/12/03 11:01:06;;;;;;;10.83;8.50;;;6.80;99.90;;;;;;5095936;28;20205;-75
2020/12/03 11:03:36;;;;;;;14.20;9.93;;;6.80;99.90;;;;;;5095919;28;20221;-75
2020/12/03 11:06:03;;;;;;;14.37;9.03;;;6.80;99.90;;;;;;5095695;28;20651;-74
2020/12/03 11:08:37;;;;;;;18.40;9.30;;;6.80;99.90;;;;;;5096020;28;20202;-76
2020/12/03 11:11:07;;;;;;;12.37;9.63;;;6.90;99.90;;;;;;5095815;28;20600;-75
2020/12/03 11:13:34;;;;;;;15.50;9.10;;;6.80;99.90;;;;;;5095686;28;20237;-75
2020/12/03 11:16:04;;;;;;;13.30;7.83;;;6.90;99.90;;;;;;5095642;28;20237;-75
2020/12/03 11:18:41;;;;;;;10.40;7.40;;;6.90;99.90;;;;;;5095791;28;20206;-76
2020/12/03 11:21:14;;;;;;;11.13;7.97;;;6.90;99.90;;;;;;5085829;28;20210;-75
2020/12/03 11:24:04;;;;;;;11.60;7.73;;;6.90;99.90;;;;;;5089490;28;20225;-75
2020/12/03 11:26:33;;;;;;;11.03;7.37;;;6.90;99.90;;;;;;5087606;28;20206;-75
2020/12/03 11:29:10;;;;;;;14.20;7.10;;;6.90;99.90;;;;;;5095584;28;20209;-75
2020/12/03 11:31:36;;;;;;;9.63;6.60;;;6.90;99.90;;;;;;5096004;28;20231;-76
2020/12/03 11:34:03;;;;;;;7.83;6.47;;;6.90;99.90;;;;;;5095039;28;20661;-74
2020/12/03 11:36:34;;;;;;;11.77;7.00;;;6.80;99.90;;;;;;5092529;28;20190;-75
2020/12/03 11:39:03;;;;;;;10.33;6.10;;;6.90;99.90;;;;;;5089721;28;20305;-75
2020/12/03 11:41:38;;;;;;;10.63;6.47;;;6.90;99.90;;;;;;5083714;28;20194;-77
2020/12/03 11:47:17;;;;;;;12.23;7.43;;;6.80;99.90;;;;;;5086717;28;20232;-76
2020/12/03 11:49:43;;;;;;;8.47;6.73;;;6.80;99.90;;;;;;5084089;28;20191;-76
2020/12/03 11:52:12;;;;;;;11.83;6.50;;;6.80;99.90;;;;;;5082336;28;20607;-76
2020/12/03 11:54:39;;;;;;;7.70;5.87;;;6.80;99.90;;;;;;5085158;28;20631;-75
2020/12/03 11:57:06;;;;;;;9.23;5.83;;;6.80;99.90;;;;;;5090061;28;20203;-76
2020/12/03 11:59:33;;;;;;;9.07;6.00;;;6.80;99.90;;;;;;5090909;28;20195;-78
2020/12/03 12:02:02;;;;;;;7.57;5.73;;;6.90;99.90;;;;;;5090965;28;20225;-76
2020/12/03 12:04:34;;;;;;;7.10;6.00;;;6.80;99.90;;;;;;5090534;28;20293;-76
2020/12/03 12:07:17;;;;;;;8.97;5.70;;;6.80;99.90;;;;;;5087280;28;20202;-75
2020/12/03 12:09:53;;;;;;;7.20;5.33;;;6.60;99.90;;;;;;5092780;28;20564;-76
2020/12/03 12:12:22;;;;;;;7.53;5.20;;;6.80;99.90;;;;;;5093647;28;20240;-75
2020/12/03 12:14:48;;;;;;;6.23;5.00;;;6.70;99.90;;;;;;5088903;28;20297;-77
2020/12/03 12:17:16;;;;;;;8.87;5.00;;;6.70;99.90;;;;;;5093224;28;20285;-76
2020/12/03 12:19:43;;;;;;;5.83;4.90;;;6.70;99.90;;;;;;5082321;28;20206;-77
2020/12/03 12:22:12;;;;;;;6.90;4.60;;;6.60;99.90;;;;;;5089395;28;20221;-76
2020/12/03 12:24:41;;;;;;;5.40;4.17;;;6.60;99.90;;;;;;5091934;28;20233;-77
2020/12/03 12:27:09;;;;;;;6.33;4.27;;;6.60;99.90;;;;;;5094127;28;20205;-75
2020/12/03 12:29:35;;;;;;;5.33;4.37;;;6.60;99.90;;;;;;5094109;28;20281;-75
2020/12/03 12:32:02;;;;;;;5.40;4.63;;;6.60;99.90;;;;;;5089882;28;20203;-75
2020/12/03 12:34:29;;;;;;;4.60;4.20;;;6.60;99.90;;;;;;5093887;28;20269;-76
2020/12/03 12:36:55;;;;;;;4.63;3.73;;;6.60;99.90;;;;;;5093638;28;20297;-76
2020/12/03 12:39:22;;;;;;;5.07;3.87;;;6.60;99.90;;;;;;5091231;28;20209;-76
2020/12/03 12:41:59;;;;;;;10.70;4.03;;;6.60;99.90;;;;;;5093746;28;20234;-76
2020/12/03 12:44:26;;;;;;;7.03;3.63;;;6.70;99.90;;;;;;5093661;28;20232;-76
2020/12/03 12:46:57;;;;;;;3.70;3.40;;;6.70;99.90;;;;;;5094248;28;20615;-77
2020/12/03 12:49:24;;;;;;;4.40;3.43;;;6.70;99.90;;;;;;5090046;28;20686;-76
2020/12/03 12:51:51;;;;;;;7.77;5.17;;;6.70;99.90;;;;;;5093609;28;20293;-77
2020/12/03 12:54:21;;;;;;;5.93;3.30;;;6.70;99.90;;;;;;5091206;28;20213;-75
2020/12/03 12:56:47;;;;;;;5.93;3.83;;;6.70;99.90;;;;;;5080886;28;20218;-75
2020/12/03 12:59:14;;;;;;;4.57;3.83;;;6.60;99.90;;;;;;5089710;28;20240;-75
2020/12/03 13:01:44;;;;;;;5.83;3.93;;;6.70;99.90;;;;;;5091899;28;20234;-76
2020/12/03 13:04:11;;;;;;;4.43;3.93;;;6.80;99.90;;;;;;5088844;28;20199;-75
2020/12/03 13:06:37;;;;;;;5.10;3.83;;;6.70;99.90;;;;;;5092302;28;20220;-75
2020/12/03 13:09:03;;;;;;;5.23;4.00;;;6.70;99.90;;;;;;5090981;28;20710;-75
2020/12/03 13:11:30;;;;;;;6.50;4.50;;;6.60;99.90;;;;;;5089591;28;20218;-76